Time;durP1;ratioP1;P1;durP2;ratioP2;P2;SDS_P1;SDS_P2;PMS_P1;PMS_P2;Temp;Humidity;BMP_temperature;BMP_pressure;BME280_temperature;BME280_humidity;BME280_pressure;Samples;Min_cycle;Max_cycle;Signal;HPM_P1;HPM_P2
2022/12/25 00:00:39;;;;;;;23.83;9.98;;;6.10;99.90;;;;;;5044387;28;20053;-76
2022/12/25 00:03:06;;;;;;;20.13;8.23;;;6.10;99.90;;;;;;5043011;28;20046;-76
2022/12/25 00:05:32;;;;;;;22.00;8.68;;;6.10;99.90;;;;;;5040722;28;20053;-76
2022/12/25 00:07:57;;;;;;;18.77;8.20;;;6.20;99.90;;;;;;5037882;28;20517;-76
2022/12/25 00:10:23;;;;;;;17.58;8.32;;;6.20;99.90;;;;;;5044126;28;20053;-77
2022/12/25 00:12:49;;;;;;;19.63;7.93;;;6.20;99.90;;;;;;5042924;28;20402;-74
2022/12/25 00:15:15;;;;;;;19.45;7.55;;;6.30;99.90;;;;;;5035772;28;20457;-76
2022/12/25 00:17:40;;;;;;;20.73;8.15;;;6.20;99.90;;;;;;5050416;28;20041;-77
2022/12/25 00:20:07;;;;;;;22.05;8.45;;;6.30;99.90;;;;;;5050412;28;20067;-74
2022/12/25 00:22:33;;;;;;;19.98;7.60;;;6.30;99.90;;;;;;5044173;28;20052;-77
2022/12/25 00:24:58;;;;;;;16.30;7.22;;;6.20;99.90;;;;;;5036236;28;20041;-76
2022/12/25 00:27:24;;;;;;;19.10;7.75;;;6.20;99.90;;;;;;5043194;28;20076;-77
2022/12/25 00:29:50;;;;;;;21.60;7.75;;;6.20;99.90;;;;;;5041124;28;20262;-77
2022/12/25 00:32:15;;;;;;;17.55;6.93;;;6.10;99.90;;;;;;5036063;28;20588;-75
2022/12/25 00:34:41;;;;;;;15.38;8.15;;;6.10;99.90;;;;;;5053326;28;20029;-77
2022/12/25 00:37:07;;;;;;;16.98;7.10;;;6.10;99.90;;;;;;5052286;28;20041;-76
2022/12/25 00:39:32;;;;;;;21.02;7.78;;;6.10;99.90;;;;;;5039846;28;20053;-75
2022/12/25 00:44:42;;;;;;;20.15;7.50;;;6.10;99.90;;;;;;5039603;28;20049;-77
2022/12/25 00:47:08;;;;;;;14.80;7.40;;;6.10;99.90;;;;;;5038056;28;20049;-77
2022/12/25 00:49:34;;;;;;;13.30;7.75;;;6.10;99.90;;;;;;5035901;28;20068;-74
2022/12/25 00:52:00;;;;;;;14.77;6.57;;;6.20;99.90;;;;;;5044927;28;20057;-75
2022/12/25 00:54:26;;;;;;;21.23;8.10;;;6.10;99.90;;;;;;5042161;28;20049;-74
2022/12/25 00:56:51;;;;;;;13.65;6.30;;;6.10;99.90;;;;;;5050918;28;20041;-77
2022/12/25 00:59:17;;;;;;;20.58;7.22;;;6.30;99.90;;;;;;5036745;28;20049;-73
2022/12/25 01:01:43;;;;;;;16.48;6.15;;;6.10;99.90;;;;;;5035304;28;20041;-75
2022/12/25 01:04:10;;;;;;;17.67;7.70;;;6.10;99.90;;;;;;5044878;28;20047;-74
2022/12/25 01:06:36;;;;;;;13.48;6.22;;;6.10;99.90;;;;;;5047784;28;20052;-74
2022/12/25 01:11:45;;;;;;;19.48;6.93;;;6.00;99.90;;;;;;5046607;28;20053;-73
2022/12/25 01:14:11;;;;;;;17.90;7.53;;;6.00;99.90;;;;;;5049394;28;20409;-74
2022/12/25 01:16:37;;;;;;;17.30;6.00;;;5.90;99.90;;;;;;5037079;28;20437;-74
2022/12/25 01:19:03;;;;;;;11.90;6.55;;;5.90;99.90;;;;;;5055232;28;20048;-73
2022/12/25 01:21:29;;;;;;;15.35;6.40;;;6.00;99.90;;;;;;5037274;28;20069;-74
2022/12/25 01:23:55;;;;;;;16.42;6.20;;;6.00;99.90;;;;;;5044854;28;20041;-74
2022/12/25 01:26:23;;;;;;;16.33;6.90;;;6.00;99.90;;;;;;5038022;28;20556;-74
2022/12/25 01:28:49;;;;;;;17.73;6.55;;;6.00;99.90;;;;;;5065199;28;20081;-74
2022/12/25 01:31:18;;;;;;;15.02;6.80;;;6.00;99.90;;;;;;5036825;28;20052;-74
2022/12/25 01:33:44;;;;;;;14.10;6.57;;;6.00;99.90;;;;;;5036680;28;20048;-74
2022/12/25 01:36:19;;;;;;;19.08;7.13;;;6.00;99.90;;;;;;5036054;28;20049;-74
2022/12/25 01:38:46;;;;;;;16.23;7.57;;;6.00;99.90;;;;;;5037542;28;20049;-76
2022/12/25 01:41:13;;;;;;;18.23;8.02;;;6.00;99.90;;;;;;5061627;28;20055;-74
2022/12/25 01:43:56;;;;;;;16.27;7.07;;;6.00;99.90;;;;;;5037335;28;20036;-74
2022/12/25 01:46:22;;;;;;;15.95;7.18;;;6.10;99.90;;;;;;5048073;28;20107;-74
2022/12/25 01:48:48;;;;;;;17.48;7.57;;;6.10;99.90;;;;;;5054093;28;20049;-74
2022/12/25 01:51:27;;;;;;;14.50;6.60;;;6.20;99.90;;;;;;5052400;28;20093;-74
2022/12/25 01:53:56;;;;;;;14.88;6.82;;;6.30;99.90;;;;;;5045125;28;20052;-74
2022/12/25 01:56:22;;;;;;;17.20;6.70;;;6.40;99.90;;;;;;5045508;28;20057;-74
2022/12/25 01:58:47;;;;;;;19.10;6.68;;;6.40;99.90;;;;;;5064296;28;20073;-74
2022/12/25 02:01:13;;;;;;;19.15;6.43;;;6.40;99.90;;;;;;5037112;28;20096;-74
2022/12/25 02:03:41;;;;;;;15.13;7.25;;;6.40;99.90;;;;;;5037692;28;20052;-74
2022/12/25 02:06:07;;;;;;;14.68;6.57;;;6.40;99.90;;;;;;5041356;28;20033;-74
2022/12/25 02:08:33;;;;;;;12.05;6.20;;;6.50;99.90;;;;;;5040685;28;20044;-73
2022/12/25 02:10:59;;;;;;;15.95;6.55;;;6.50;99.90;;;;;;5042474;28;20052;-74
2022/12/25 02:13:24;;;;;;;16.80;6.72;;;6.50;99.90;;;;;;5044380;28;20648;-74
2022/12/25 02:16:12;;;;;;;15.07;6.70;;;6.50;99.90;;;;;;5047744;28;20036;-73
2022/12/25 02:18:43;;;;;;;13.98;6.55;;;6.50;99.90;;;;;;5053104;28;20084;-74
2022/12/25 02:21:44;;;;;;;17.88;6.45;;;6.50;99.90;;;;;;5040834;28;20045;-73
2022/12/25 02:24:45;;;;;;;20.05;6.82;;;6.50;99.90;;;;;;5056318;28;20057;-75
2022/12/25 02:27:34;;;;;;;15.10;5.70;;;6.60;99.90;;;;;;4957765;28;20061;-74
2022/12/25 02:30:09;;;;;;;17.85;7.18;;;6.60;99.90;;;;;;5040144;28;20060;-74
2022/12/25 02:32:47;;;;;;;11.70;6.00;;;6.50;99.90;;;;;;5049213;28;20083;-74
2022/12/25 02:35:30;;;;;;;18.13;7.00;;;6.50;99.90;;;;;;5041401;28;20053;-74
2022/12/25 02:38:05;;;;;;;15.20;6.30;;;6.50;99.90;;;;;;5039989;28;20496;-73
2022/12/25 02:40:48;;;;;;;14.80;6.55;;;6.50;99.90;;;;;;5038943;28;20080;-74
2022/12/25 03:08:51;;;;;;;12.68;6.65;;;6.70;99.90;;;;;;5059778;28;20052;-70
2022/12/25 03:11:31;;;;;;;14.88;6.80;;;6.70;99.90;;;;;;5041305;28;20511;-69
2022/12/25 03:16:55;;;;;;;15.48;5.45;;;6.70;99.90;;;;;;5057767;28;20048;-70
2022/12/25 03:27:45;;;;;;;14.55;6.97;;;6.80;99.90;;;;;;5037888;28;20089;-70
2022/12/25 03:33:16;;;;;;;12.40;6.45;;;6.80;99.90;;;;;;5042580;28;20049;-70
2022/12/25 03:36:01;;;;;;;;;;;6.80;99.90;;;;;;5038966;28;20057;-70
2022/12/25 04:37:23;;;;;;;17.38;7.78;;;7.30;99.90;;;;;;5038199;28;20045;-71
2022/12/25 04:39:49;;;;;;;15.38;7.88;;;7.40;99.90;;;;;;5039875;28;20103;-71
2022/12/25 04:42:15;;;;;;;14.75;7.22;;;7.40;99.90;;;;;;5038643;28;20042;-70
2022/12/25 04:44:41;;;;;;;17.63;7.10;;;7.40;99.90;;;;;;5069031;28;20045;-72
2022/12/25 04:47:07;;;;;;;19.63;7.45;;;7.40;99.90;;;;;;5039227;28;20049;-72
2022/12/25 04:49:32;;;;;;;13.50;7.13;;;7.40;99.90;;;;;;5068241;28;20057;-72
2022/12/25 04:51:58;;;;;;;14.07;7.68;;;7.50;99.90;;;;;;5037190;28;20422;-72
2022/12/25 04:54:24;;;;;;;16.92;7.75;;;7.50;99.90;;;;;;5048341;28;20049;-72
2022/12/25 04:56:49;;;;;;;14.77;7.68;;;7.50;99.90;;;;;;5048940;28;20042;-72
2022/12/25 04:59:15;;;;;;;15.10;7.15;;;7.50;99.90;;;;;;5040599;28;20048;-71
2022/12/25 05:01:41;;;;;;;16.98;7.60;;;7.50;99.90;;;;;;5046002;28;20685;-72
2022/12/25 05:04:06;;;;;;;17.20;8.48;;;7.60;99.90;;;;;;5045388;28;20045;-71
2022/12/25 05:06:32;;;;;;;16.63;7.70;;;7.60;99.90;;;;;;5036123;28;20033;-71
2022/12/25 05:08:58;;;;;;;16.02;7.75;;;7.60;99.90;;;;;;5038673;28;20339;-71
2022/12/25 05:11:23;;;;;;;14.10;7.53;;;7.60;99.90;;;;;;5018238;28;20101;-71
2022/12/25 05:13:49;;;;;;;17.55;7.40;;;7.60;99.90;;;;;;5037496;28;20057;-71
2022/12/25 05:16:17;;;;;;;12.88;6.93;;;7.70;99.90;;;;;;5032812;28;20054;-71
2022/12/25 05:18:43;;;;;;;14.77;7.88;;;7.70;99.90;;;;;;5023743;28;20040;-71
2022/12/25 05:21:12;;;;;;;16.63;7.03;;;7.70;99.90;;;;;;5033213;28;20134;-71
2022/12/25 05:23:47;;;;;;;17.15;7.97;;;7.70;99.90;;;;;;5061100;28;20514;-72
2022/12/25 05:26:14;;;;;;;16.33;7.95;;;7.80;99.90;;;;;;5045013;28;20045;-71
2022/12/25 05:28:39;;;;;;;16.10;7.28;;;7.80;99.90;;;;;;5051808;28;20967;-71
2022/12/25 05:31:05;;;;;;;17.58;7.80;;;7.80;99.90;;;;;;5038314;28;20053;-71
2022/12/25 05:33:31;;;;;;;16.65;7.80;;;7.90;99.90;;;;;;5069284;28;20432;-71
2022/12/25 05:35:56;;;;;;;16.15;7.07;;;7.90;99.90;;;;;;5036283;28;20049;-71
2022/12/25 05:38:22;;;;;;;17.08;7.97;;;7.90;99.90;;;;;;5037972;28;20088;-71
2022/12/25 05:40:50;;;;;;;13.75;7.28;;;7.90;99.90;;;;;;5035376;28;20100;-71
2022/12/25 05:43:18;;;;;;;17.88;8.43;;;7.90;99.90;;;;;;5040753;28;20068;-72
2022/12/25 05:45:44;;;;;;;14.93;7.63;;;8.00;99.90;;;;;;5034607;28;20056;-70
2022/12/25 05:48:12;;;;;;;16.30;7.50;;;8.00;99.90;;;;;;5043925;28;20049;-71
2022/12/25 05:50:38;;;;;;;18.05;8.00;;;8.00;99.90;;;;;;5036973;28;20041;-72
2022/12/25 05:53:05;;;;;;;18.85;8.45;;;8.00;99.90;;;;;;5035132;28;20106;-72
2022/12/25 05:55:33;;;;;;;17.35;8.00;;;8.00;99.90;;;;;;5064890;28;20080;-71
2022/12/25 05:58:03;;;;;;;14.05;7.70;;;8.00;99.90;;;;;;5026622;28;20480;-71
2022/12/25 06:00:29;;;;;;;19.08;8.70;;;8.10;99.90;;;;;;5050877;28;20094;-71
2022/12/25 06:02:55;;;;;;;14.60;7.97;;;8.10;99.90;;;;;;5053667;28;20041;-72
2022/12/25 06:05:20;;;;;;;17.05;8.50;;;8.00;99.90;;;;;;5044957;28;20053;-71
2022/12/25 06:07:46;;;;;;;17.27;8.35;;;8.00;99.90;;;;;;5043101;28;20040;-71
2022/12/25 06:10:12;;;;;;;15.82;8.35;;;8.10;99.90;;;;;;5036295;28;20065;-71
2022/12/25 06:12:37;;;;;;;16.25;7.85;;;8.10;99.90;;;;;;5037499;28;20049;-71
2022/12/25 06:15:04;;;;;;;14.85;8.18;;;8.10;99.90;;;;;;5067100;28;20045;-71
2022/12/25 06:17:30;;;;;;;13.40;7.68;;;8.10;99.90;;;;;;5037098;28;20050;-71
2022/12/25 06:19:56;;;;;;;14.60;7.88;;;8.10;99.90;;;;;;5044534;28;20059;-71
2022/12/25 06:22:21;;;;;;;14.60;7.43;;;8.20;99.90;;;;;;5055762;28;20040;-71
2022/12/25 06:24:47;;;;;;;15.05;8.10;;;8.20;99.90;;;;;;5044875;28;20049;-71
2022/12/25 06:27:14;;;;;;;15.73;7.85;;;8.20;99.90;;;;;;5045863;28;20046;-71
2022/12/25 06:29:39;;;;;;;12.52;6.85;;;8.20;99.90;;;;;;5029261;28;20144;-71
2022/12/25 06:32:05;;;;;;;14.85;7.93;;;8.20;99.90;;;;;;5035517;28;20041;-72
2022/12/25 06:34:31;;;;;;;15.77;7.78;;;8.20;99.90;;;;;;5054460;28;20050;-71
2022/12/25 06:36:56;;;;;;;18.63;8.23;;;8.30;99.90;;;;;;5053870;28;20052;-71
2022/12/25 06:39:24;;;;;;;14.85;7.75;;;8.30;99.90;;;;;;5049878;28;20489;-71
2022/12/25 06:41:50;;;;;;;15.10;7.80;;;8.30;99.90;;;;;;5035558;28;20049;-71
2022/12/25 06:44:15;;;;;;;17.63;7.55;;;8.30;99.90;;;;;;5036491;28;20056;-70
2022/12/25 06:46:41;;;;;;;13.65;7.28;;;8.30;99.90;;;;;;5035326;28;20050;-70
2022/12/25 06:49:07;;;;;;;16.75;7.38;;;8.40;99.90;;;;;;5018290;28;20045;-71
2022/12/25 06:51:33;;;;;;;17.52;8.50;;;8.40;99.90;;;;;;5057069;28;20052;-70
2022/12/25 06:54:02;;;;;;;14.98;7.25;;;8.40;99.90;;;;;;5038807;28;20049;-71
2022/12/25 06:56:29;;;;;;;11.77;7.65;;;8.40;99.90;;;;;;5042657;28;20049;-70
2022/12/25 06:59:00;;;;;;;15.93;7.50;;;8.40;99.90;;;;;;5072602;28;20056;-71
2022/12/25 07:01:27;;;;;;;14.18;7.45;;;8.40;99.90;;;;;;5049099;28;20054;-70
2022/12/25 07:03:56;;;;;;;11.95;6.75;;;8.40;99.90;;;;;;5042391;28;20077;-70
2022/12/25 07:06:22;;;;;;;13.48;7.18;;;8.40;99.90;;;;;;5029402;28;20139;-70
2022/12/25 07:08:48;;;;;;;13.80;7.53;;;8.40;99.90;;;;;;5042095;28;20099;-70
2022/12/25 07:11:14;;;;;;;12.23;6.85;;;8.40;99.90;;;;;;5052268;28;20083;-70
2022/12/25 07:13:40;;;;;;;14.43;6.95;;;8.30;99.90;;;;;;5062661;28;20139;-70
2022/12/25 07:16:06;;;;;;;14.48;8.57;;;8.30;99.90;;;;;;5039005;28;20061;-70
2022/12/25 07:18:33;;;;;;;13.13;6.82;;;8.20;99.90;;;;;;5036913;28;20104;-70
2022/12/25 07:21:05;;;;;;;12.70;7.35;;;8.20;99.90;;;;;;5051378;28;20563;-70
2022/12/25 07:23:31;;;;;;;12.45;7.75;;;8.20;99.90;;;;;;5053302;28;20049;-70
2022/12/25 07:25:59;;;;;;;9.77;6.43;;;8.10;99.90;;;;;;5043611;28;20044;-70
2022/12/25 07:28:25;;;;;;;13.00;7.25;;;8.10;99.90;;;;;;5048570;28;20064;-71
2022/12/25 07:30:51;;;;;;;11.27;7.07;;;8.10;99.90;;;;;;5052749;28;20493;-71
2022/12/25 07:33:18;;;;;;;13.13;6.97;;;8.10;99.90;;;;;;5054734;28;20045;-70
2022/12/25 07:35:44;;;;;;;11.18;6.50;;;8.00;99.90;;;;;;5038035;28;20589;-71
2022/12/25 07:38:10;;;;;;;12.07;6.70;;;8.00;99.90;;;;;;5059133;28;20084;-70
2022/12/25 07:40:36;;;;;;;10.73;5.93;;;8.00;99.90;;;;;;5058728;28;20091;-71
2022/12/25 07:43:02;;;;;;;11.00;6.30;;;8.00;99.90;;;;;;5060030;28;20048;-71
2022/12/25 07:45:28;;;;;;;10.95;6.50;;;8.00;99.90;;;;;;5054728;28;20144;-71
2022/12/25 07:47:54;;;;;;;11.27;6.00;;;8.10;99.90;;;;;;5039686;28;20053;-71
2022/12/25 07:50:19;;;;;;;12.25;6.00;;;8.10;99.90;;;;;;5070270;28;20054;-71
2022/12/25 07:52:45;;;;;;;10.98;6.38;;;8.10;99.90;;;;;;5044567;28;20056;-71
2022/12/25 07:55:12;;;;;;;11.18;6.75;;;8.10;99.90;;;;;;5055318;28;20080;-71
2022/12/25 07:57:38;;;;;;;11.70;6.00;;;8.10;99.90;;;;;;5043362;28;20037;-71
2022/12/25 08:00:05;;;;;;;9.95;6.10;;;8.10;99.90;;;;;;5060320;28;20046;-71
2022/12/25 08:02:31;;;;;;;10.27;6.32;;;8.10;99.90;;;;;;5033479;28;20048;-71
2022/12/25 08:04:57;;;;;;;10.20;5.85;;;8.20;99.90;;;;;;5057023;28;20041;-70
2022/12/25 08:07:23;;;;;;;10.95;6.18;;;8.10;99.90;;;;;;5047933;28;20553;-70
2022/12/25 08:09:49;;;;;;;14.32;7.00;;;8.10;99.90;;;;;;5035334;28;20728;-70
2022/12/25 08:12:15;;;;;;;11.68;6.20;;;8.10;99.90;;;;;;5070745;28;20081;-70
2022/12/25 08:14:41;;;;;;;10.70;6.70;;;8.10;99.90;;;;;;5035845;28;20053;-71
2022/12/25 08:17:07;;;;;;;13.63;6.38;;;8.10;99.90;;;;;;5002000;28;20126;-70
2022/12/25 08:19:33;;;;;;;11.50;6.47;;;8.10;99.90;;;;;;5017288;28;20069;-70
2022/12/25 08:21:59;;;;;;;13.38;6.68;;;8.10;99.90;;;;;;5052074;28;20536;-70
2022/12/25 08:24:24;;;;;;;12.95;6.60;;;8.10;99.90;;;;;;5063926;28;20057;-71
2022/12/25 08:26:50;;;;;;;9.75;5.78;;;8.10;99.90;;;;;;5040075;28;20481;-71
2022/12/25 08:29:16;;;;;;;10.75;5.53;;;8.10;99.90;;;;;;5050222;28;20069;-70
2022/12/25 08:31:43;;;;;;;11.13;6.15;;;8.10;99.90;;;;;;5017710;28;20046;-71
2022/12/25 08:34:10;;;;;;;11.32;5.75;;;8.10;99.90;;;;;;5019418;28;20057;-70
2022/12/25 08:36:36;;;;;;;8.95;5.90;;;8.10;99.90;;;;;;5016524;28;20040;-70
2022/12/25 08:39:03;;;;;;;10.90;5.75;;;8.10;99.90;;;;;;5019520;28;20050;-70
2022/12/25 08:41:28;;;;;;;9.35;5.60;;;8.20;99.90;;;;;;5024771;28;20050;-71
2022/12/25 08:43:54;;;;;;;8.80;5.78;;;8.20;99.90;;;;;;5017491;28;20045;-71
2022/12/25 08:46:20;;;;;;;10.02;5.43;;;8.20;99.90;;;;;;5016865;28;20057;-70
2022/12/25 08:48:48;;;;;;;9.02;5.80;;;8.20;99.90;;;;;;5022386;28;20055;-70
2022/12/25 08:51:18;;;;;;;8.63;5.32;;;8.20;99.90;;;;;;5034248;28;20072;-70
2022/12/25 08:53:46;;;;;;;8.43;5.25;;;8.30;99.90;;;;;;5021828;28;20041;-71
2022/12/25 08:56:12;;;;;;;12.00;5.60;;;8.30;99.90;;;;;;5029230;28;20053;-72
2022/12/25 08:58:38;;;;;;;13.82;5.15;;;8.30;99.90;;;;;;5026275;28;20037;-70
2022/12/25 09:01:04;;;;;;;8.57;5.07;;;8.40;99.90;;;;;;5061129;28;20457;-71
2022/12/25 09:03:31;;;;;;;9.27;5.57;;;8.50;99.90;;;;;;5034615;28;20112;-71
2022/12/25 09:06:04;;;;;;;10.32;5.03;;;8.50;99.90;;;;;;5035348;28;20053;-70
2022/12/25 09:08:30;;;;;;;10.90;4.80;;;8.60;99.90;;;;;;5021366;28;20046;-70
2022/12/25 09:11:03;;;;;;;8.65;4.95;;;8.60;99.90;;;;;;5031967;28;20045;-69
2022/12/25 09:13:29;;;;;;;10.35;5.20;;;8.60;99.90;;;;;;5033952;28;20038;-70
2022/12/25 09:15:55;;;;;;;11.10;5.90;;;8.70;99.90;;;;;;5039594;28;20049;-69
2022/12/25 09:18:21;;;;;;;7.75;5.43;;;8.70;99.90;;;;;;5024060;28;20761;-69
2022/12/25 09:20:55;;;;;;;8.15;4.90;;;8.80;99.90;;;;;;5036466;28;20063;-69
2022/12/25 09:23:21;;;;;;;8.68;5.50;;;8.80;99.90;;;;;;5025091;28;20045;-69
2022/12/25 09:25:46;;;;;;;11.25;5.43;;;8.80;99.90;;;;;;5049443;28;20045;-69
2022/12/25 09:28:12;;;;;;;9.65;5.30;;;8.80;99.90;;;;;;5029233;28;20041;-69
2022/12/25 09:30:38;;;;;;;9.50;4.93;;;8.80;99.90;;;;;;5030001;28;20173;-68
2022/12/25 09:33:03;;;;;;;9.43;5.00;;;8.80;99.90;;;;;;5033524;28;20033;-69
2022/12/25 09:35:29;;;;;;;8.40;5.00;;;8.80;99.90;;;;;;5020434;28;20038;-69
2022/12/25 09:37:55;;;;;;;7.35;4.78;;;8.80;99.90;;;;;;5048894;28;20499;-69
2022/12/25 09:40:21;;;;;;;9.45;4.70;;;8.80;99.90;;;;;;5021655;28;20254;-69
2022/12/25 09:42:48;;;;;;;10.48;5.15;;;8.80;99.90;;;;;;5027146;28;20044;-69
2022/12/25 09:45:23;;;;;;;7.68;4.72;;;8.80;99.90;;;;;;5026122;28;20082;-69
2022/12/25 09:47:53;;;;;;;10.55;5.20;;;8.90;99.90;;;;;;5051087;28;20048;-69
2022/12/25 09:50:42;;;;;;;10.45;5.15;;;8.90;99.90;;;;;;5034536;28;20049;-69
2022/12/25 09:53:28;;;;;;;8.85;4.63;;;8.90;99.90;;;;;;5028801;28;20080;-70
2022/12/25 09:56:18;;;;;;;8.27;4.73;;;8.90;99.90;;;;;;5037998;28;20064;-70
2022/12/25 09:58:44;;;;;;;9.20;4.68;;;8.90;99.90;;;;;;5032030;28;20037;-69
2022/12/25 10:01:33;;;;;;;7.95;4.80;;;8.90;99.90;;;;;;5037660;28;20558;-70
2022/12/25 10:04:13;;;;;;;8.80;4.55;;;8.90;99.90;;;;;;5033457;28;20075;-69
2022/12/25 10:06:58;;;;;;;8.63;4.90;;;9.00;99.90;;;;;;5033805;28;20061;-69
2022/12/25 10:09:37;;;;;;;11.00;5.60;;;9.00;99.90;;;;;;5060665;28;20081;-70
2022/12/25 10:12:05;;;;;;;8.88;5.40;;;9.00;99.90;;;;;;5034897;28;20049;-69
2022/12/25 10:14:43;;;;;;;10.00;5.40;;;9.00;99.90;;;;;;5037571;28;20045;-69
2022/12/25 10:17:11;;;;;;;9.75;5.35;;;9.00;99.90;;;;;;5034298;28;20051;-69
2022/12/25 10:19:54;;;;;;;7.95;5.40;;;9.00;99.90;;;;;;5032921;28;20050;-69
2022/12/25 10:22:33;;;;;;;6.65;4.63;;;9.00;99.90;;;;;;5062940;28;20057;-69
2022/12/25 10:25:00;;;;;;;9.20;4.95;;;9.00;99.90;;;;;;5032428;28;20061;-69
2022/12/25 10:27:34;;;;;;;9.73;5.20;;;9.00;99.90;;;;;;5038818;28;20079;-69
2022/12/25 10:30:04;;;;;;;8.98;5.22;;;9.00;99.90;;;;;;5040915;28;20049;-69
2022/12/25 10:32:31;;;;;;;11.25;5.47;;;9.00;99.90;;;;;;5020532;28;20121;-69
2022/12/25 10:34:56;;;;;;;10.07;5.05;;;9.00;99.90;;;;;;5051115;28;20051;-70
2022/12/25 10:37:23;;;;;;;8.15;4.85;;;9.00;99.90;;;;;;5043703;28;20053;-69
2022/12/25 10:39:49;;;;;;;7.32;4.60;;;9.00;99.90;;;;;;5044927;28;20145;-69
2022/12/25 10:42:39;;;;;;;8.73;4.35;;;9.00;99.90;;;;;;5049739;28;20092;-69
2022/12/25 10:45:08;;;;;;;7.68;4.70;;;9.00;99.90;;;;;;5057644;28;20095;-69
2022/12/25 10:47:42;;;;;;;7.75;4.63;;;9.00;99.90;;;;;;5049377;28;20512;-70
2022/12/25 10:50:23;;;;;;;7.60;4.63;;;9.00;99.90;;;;;;5038962;28;20049;-70
2022/12/25 10:53:16;;;;;;;8.68;4.22;;;9.00;99.90;;;;;;5039254;28;20687;-70
2022/12/25 10:55:42;;;;;;;7.95;4.53;;;9.00;99.90;;;;;;5039182;28;20057;-70
2022/12/25 10:58:20;;;;;;;9.00;4.70;;;9.10;99.90;;;;;;5036420;28;20072;-70
2022/12/25 11:01:02;;;;;;;6.43;4.30;;;9.10;99.90;;;;;;5039692;28;20052;-71
2022/12/25 11:03:34;;;;;;;8.13;4.70;;;9.10;99.90;;;;;;5047780;28;20041;-71
2022/12/25 11:06:01;;;;;;;8.52;4.70;;;9.20;99.90;;;;;;5038007;28;20045;-71
2022/12/25 11:08:29;;;;;;;8.45;4.32;;;9.20;99.90;;;;;;5039561;28;20124;-70
2022/12/25 11:11:05;;;;;;;8.18;4.70;;;9.20;99.90;;;;;;5051831;28;20067;-70
2022/12/25 11:13:38;;;;;;;8.70;4.30;;;9.20;99.90;;;;;;5057745;28;20041;-71
2022/12/25 11:16:14;;;;;;;8.52;4.45;;;9.20;99.90;;;;;;5037302;28;20171;-71
2022/12/25 11:18:45;;;;;;;8.50;4.67;;;9.20;99.90;;;;;;5046516;28;20056;-71
2022/12/25 11:21:31;;;;;;;9.50;4.70;;;9.20;99.90;;;;;;5048128;28;20307;-70
2022/12/25 11:24:05;;;;;;;8.60;4.90;;;9.20;99.90;;;;;;5057845;28;20041;-70
2022/12/25 11:26:45;;;;;;;11.10;5.13;;;9.20;99.90;;;;;;5040707;28;20505;-70
2022/12/25 11:29:32;;;;;;;9.25;4.85;;;9.30;99.90;;;;;;5021096;28;20541;-70
2022/12/25 11:32:01;;;;;;;8.20;4.95;;;9.30;99.90;;;;;;5038445;28;20053;-70
2022/12/25 11:34:39;;;;;;;7.28;4.78;;;9.30;99.90;;;;;;5055034;28;20045;-70
2022/12/25 11:37:13;;;;;;;7.80;4.75;;;9.30;99.90;;;;;;5037608;28;20057;-70
2022/12/25 11:39:40;;;;;;;9.40;5.38;;;9.30;99.90;;;;;;5054159;28;20097;-70
2022/12/25 11:42:25;;;;;;;9.15;5.28;;;9.30;99.90;;;;;;5037571;28;20476;-69
2022/12/25 11:45:03;;;;;;;7.20;4.80;;;9.30;99.90;;;;;;5036133;28;20045;-70
2022/12/25 11:47:47;;;;;;;7.05;5.20;;;9.30;99.90;;;;;;5039712;28;20050;-70
2022/12/25 11:50:36;;;;;;;8.57;4.78;;;9.30;99.90;;;;;;5036842;28;20091;-70
2022/12/25 11:53:06;;;;;;;8.35;4.88;;;9.30;99.90;;;;;;5046743;28;20060;-70
2022/12/25 11:55:46;;;;;;;12.13;5.80;;;9.30;99.90;;;;;;5051132;28;20404;-70
2022/12/25 11:58:21;;;;;;;8.02;4.70;;;9.30;99.90;;;;;;5055218;28;20045;-71
2022/12/25 12:00:50;;;;;;;10.20;5.18;;;9.30;99.90;;;;;;5038090;28;20064;-71
2022/12/25 12:03:16;;;;;;;11.45;4.65;;;9.30;99.90;;;;;;5036797;28;20060;-71
2022/12/25 12:05:53;;;;;;;8.48;4.80;;;9.30;99.90;;;;;;5036783;28;20502;-69
2022/12/25 12:08:18;;;;;;;8.57;4.47;;;9.30;99.90;;;;;;5049227;28;20057;-70
2022/12/25 12:11:17;;;;;;;6.45;4.65;;;9.30;99.90;;;;;;5038110;28;20105;-70
2022/12/25 12:14:16;;;;;;;9.07;5.10;;;9.30;99.90;;;;;;5042840;28;20052;-70
2022/12/25 12:16:41;;;;;;;6.95;4.07;;;9.30;99.90;;;;;;5057148;28;20059;-70
2022/12/25 12:19:33;;;;;;;9.90;4.97;;;9.20;99.90;;;;;;5055749;28;20132;-70
2022/12/25 12:22:02;;;;;;;8.40;3.72;;;9.20;99.90;;;;;;5057853;28;20053;-70
2022/12/25 12:24:41;;;;;;;9.95;4.85;;;9.20;99.90;;;;;;5047408;28;20100;-70
2022/12/25 12:27:47;;;;;;;6.97;4.40;;;9.30;99.90;;;;;;5043487;28;20093;-69
2022/12/25 12:30:22;;;;;;;6.40;4.03;;;9.20;99.90;;;;;;5040310;28;20037;-71
2022/12/25 12:32:52;;;;;;;10.38;4.82;;;9.30;99.90;;;;;;5042073;28;20045;-70
2022/12/25 12:35:23;;;;;;;7.53;4.38;;;9.30;99.90;;;;;;5058520;28;20045;-71
2022/12/25 12:37:53;;;;;;;7.47;4.18;;;9.20;99.90;;;;;;5045315;28;20073;-70
2022/12/25 12:40:40;;;;;;;7.32;3.85;;;9.20;99.90;;;;;;5036880;28;20049;-70
2022/12/25 12:43:33;;;;;;;8.15;4.43;;;9.20;99.90;;;;;;5044560;28;20045;-70
2022/12/25 12:46:16;;;;;;;8.40;4.40;;;9.20;99.90;;;;;;5044076;28;20037;-70
2022/12/25 12:48:46;;;;;;;6.93;4.60;;;9.20;99.90;;;;;;5035721;28;20468;-70
2022/12/25 12:51:25;;;;;;;6.63;4.60;;;9.20;99.90;;;;;;5035348;28;20042;-69
2022/12/25 12:54:23;;;;;;;9.32;5.55;;;9.20;99.90;;;;;;5034994;28;20064;-70
2022/12/25 12:57:04;;;;;;;10.48;6.50;;;9.20;99.90;;;;;;5033266;28;20087;-70
2022/12/25 12:59:38;;;;;;;6.10;4.25;;;9.10;99.90;;;;;;5034210;28;20045;-70
2022/12/25 13:02:35;;;;;;;8.98;3.63;;;9.10;99.90;;;;;;5033661;28;20069;-70
2022/12/25 13:05:26;;;;;;;6.57;4.07;;;9.10;99.90;;;;;;5034499;28;20085;-70
2022/12/25 13:08:10;;;;;;;8.18;3.90;;;9.10;99.90;;;;;;5034779;28;20580;-71
2022/12/25 13:10:42;;;;;;;7.13;3.95;;;9.10;99.90;;;;;;5057799;28;20084;-71
2022/12/25 13:13:24;;;;;;;6.82;3.53;;;9.10;99.90;;;;;;5035479;28;20034;-71
2022/12/25 13:15:51;;;;;;;5.78;3.58;;;9.00;99.90;;;;;;5032784;28;20336;-70
2022/12/25 13:18:17;;;;;;;9.63;4.00;;;9.00;99.90;;;;;;5035801;28;20067;-70
2022/12/25 13:20:56;;;;;;;5.88;3.97;;;9.00;99.90;;;;;;5035164;28;20037;-71
2022/12/25 13:23:35;;;;;;;8.02;4.70;;;9.00;99.90;;;;;;5032202;28;20049;-70
2022/12/25 13:26:04;;;;;;;7.75;4.82;;;9.00;99.90;;;;;;5049754;28;20045;-70
2022/12/25 13:28:34;;;;;;;8.50;5.43;;;9.00;99.90;;;;;;5032085;28;20413;-70
2022/12/25 13:31:24;;;;;;;7.50;4.78;;;8.90;99.90;;;;;;5032013;28;20517;-70
2022/12/25 13:33:54;;;;;;;8.50;5.03;;;9.00;99.90;;;;;;4999965;28;20058;-70
2022/12/25 13:36:20;;;;;;;7.75;5.25;;;9.00;99.90;;;;;;5031231;28;20060;-70
2022/12/25 13:38:48;;;;;;;9.27;5.60;;;8.90;99.90;;;;;;5035089;28;20101;-71
2022/12/25 13:44:26;;;;;;;8.27;5.50;;;8.90;99.90;;;;;;5034001;28;20421;-71
2022/12/25 13:46:51;;;;;;;9.27;4.93;;;8.90;99.90;;;;;;5036368;28;20468;-70
2022/12/25 13:49:20;;;;;;;8.63;5.93;;;8.90;99.90;;;;;;5049643;28;20419;-71
2022/12/25 13:51:46;;;;;;;8.45;6.10;;;8.80;99.90;;;;;;5037093;28;20160;-70
2022/12/25 13:54:14;;;;;;;7.43;6.00;;;8.80;99.90;;;;;;5032971;28;20050;-71
2022/12/25 13:56:58;;;;;;;8.30;6.05;;;8.80;99.90;;;;;;5034501;28;20520;-71
2022/12/25 13:59:24;;;;;;;9.93;5.57;;;8.80;99.90;;;;;;5037674;28;20041;-71
2022/12/25 14:01:52;;;;;;;9.00;5.95;;;8.80;99.90;;;;;;5038855;28;20037;-70
2022/12/25 14:04:23;;;;;;;8.55;5.75;;;8.80;99.90;;;;;;5041802;28;20511;-71
2022/12/25 14:06:50;;;;;;;8.50;5.90;;;8.80;99.90;;;;;;5039831;28;20075;-71
2022/12/25 14:09:17;;;;;;;7.57;5.70;;;8.80;99.90;;;;;;5041407;28;20041;-71
2022/12/25 14:11:47;;;;;;;8.70;5.85;;;8.80;99.90;;;;;;5040222;28;20079;-70
2022/12/25 14:14:23;;;;;;;8.07;5.60;;;8.70;99.90;;;;;;5039075;28;20609;-71
2022/12/25 14:16:53;;;;;;;10.27;5.90;;;8.80;99.90;;;;;;5041448;28;20064;-71
2022/12/25 14:19:26;;;;;;;8.85;5.93;;;8.70;99.90;;;;;;5038944;28;20519;-71
2022/12/25 14:22:19;;;;;;;10.05;6.93;;;8.70;99.90;;;;;;5039836;28;20108;-71
2022/12/25 14:24:46;;;;;;;9.80;6.20;;;8.70;99.90;;;;;;5039019;28;20132;-71
2022/12/25 14:27:22;;;;;;;10.38;6.43;;;8.70;99.90;;;;;;5038593;28;20048;-71
2022/12/25 14:29:51;;;;;;;9.40;5.82;;;8.70;99.90;;;;;;5041337;28;20038;-71
2022/12/25 14:32:20;;;;;;;10.02;6.68;;;8.70;99.90;;;;;;5038772;28;20037;-71
2022/12/25 14:34:51;;;;;;;11.52;7.38;;;8.70;99.90;;;;;;5039687;28;20127;-71
2022/12/25 14:37:21;;;;;;;10.05;6.45;;;8.70;99.90;;;;;;5038321;28;20053;-71
2022/12/25 14:39:59;;;;;;;7.82;6.03;;;8.60;99.90;;;;;;5038236;28;20075;-71
2022/12/25 14:42:31;;;;;;;8.90;6.68;;;8.60;99.90;;;;;;5041285;28;20041;-71
2022/12/25 14:45:24;;;;;;;8.82;6.38;;;8.60;99.90;;;;;;5038780;28;20092;-71
2022/12/25 14:47:56;;;;;;;9.63;6.38;;;8.60;99.90;;;;;;5038852;28;20056;-71
2022/12/25 14:50:40;;;;;;;8.57;6.00;;;8.60;99.90;;;;;;5058896;28;20065;-71
2022/12/25 14:53:18;;;;;;;10.43;6.72;;;8.60;99.90;;;;;;5029830;28;20089;-71
2022/12/25 14:55:50;;;;;;;9.73;6.05;;;8.60;99.90;;;;;;5039524;28;20061;-71